| time (UTC) | temp F | wind direction | speed knots | gust knots | rain 1hr in | rain 24hr in | rain mn in | humidity % | barometer mb |
| 20260510213305 | 46 | 48 | 0.0 | 0.9 | 0.00 | 0.00 | 0.00 | 70 | 1016.2 |
| 20260510212306 | 46 | 59 | 0.0 | 0.9 | 0.00 | 0.00 | 0.00 | 69 | 1016.2 |
| 20260510211306 | 47 | 58 | 0.9 | 1.7 | 0.00 | 0.00 | 0.00 | 68 | 1016.0 |
| 20260510210306 | 47 | 20 | 0.9 | 2.6 | 0.00 | 0.00 | 0.00 | 66 | 1016.1 |
| 20260510205307 | 48 | 63 | 0.9 | 2.6 | 0.00 | 0.00 | 0.00 | 65 | 1016.1 |
| 20260510204305 | 48 | 25 | 0.9 | 3.5 | 0.00 | 0.00 | 0.00 | 63 | 1016.1 |
| 20260510203306 | 49 | 46 | 0.9 | 4.3 | 0.00 | 0.00 | 0.00 | 62 | 1016.1 |
| 20260510202306 | 49 | 38 | 0.9 | 2.6 | 0.00 | 0.00 | 0.00 | 61 | 1016.1 |
| 20260510201306 | 50 | 53 | 0.9 | 3.5 | 0.00 | 0.00 | 0.00 | 60 | 1016.1 |
| 20260510200306 | 51 | 23 | 1.7 | 4.3 | 0.00 | 0.00 | 0.00 | 59 | 1016.1 |
| 20260510195306 | 51 | 33 | 1.7 | 4.3 | 0.00 | 0.00 | 0.00 | 58 | 1016.0 |
| 20260510194306 | 52 | 11 | 1.7 | 5.2 | 0.00 | 0.00 | 0.00 | 57 | 1016.2 |
| 20260510193305 | 53 | 3 | 3.5 | 7.0 | 0.00 | 0.00 | 0.00 | 55 | 1016.1 |
| 20260510192307 | 53 | 53 | 1.7 | 4.3 | 0.00 | 0.00 | 0.00 | 55 | 1016.1 |
| 20260510191306 | 54 | 65 | 1.7 | 5.2 | 0.00 | 0.00 | 0.00 | 54 | 1016.1 |
| 20260510190305 | 54 | 14 | 2.6 | 6.1 | 0.00 | 0.00 | 0.00 | 52 | 1016.2 |
| 20260510185306 | 55 | 13 | 3.5 | 10.4 | 0.00 | 0.00 | 0.00 | 51 | 1016.2 |
| 20260510184311 | 56 | 338 | 3.5 | 7.8 | 0.00 | 0.00 | 0.00 | 49 | 1016.2 |
| 20260510183305 | 56 | 65 | 2.6 | 5.2 | 0.00 | 0.00 | 0.00 | 50 | 1016.3 |
| 20260510182306 | 56 | 359 | 3.5 | 7.8 | 0.00 | 0.00 | 0.00 | 49 | 1016.2 |
| 20260510181306 | 56 | 65 | 4.3 | 11.3 | 0.00 | 0.00 | 0.00 | 49 | 1016.2 |
| 20260510180306 | 56 | 25 | 4.3 | 8.7 | 0.00 | 0.00 | 0.00 | 50 | 1016.1 |
| 20260510174306 | 57 | 50 | 6.1 | 10.4 | 0.00 | 0.00 | 0.00 | 49 | 1016.1 |
| 20260510173305 | 57 | 34 | 3.5 | 9.6 | 0.00 | 0.00 | 0.00 | 50 | 1016.1 |
| 20260510172307 | 57 | 287 | 5.2 | 13.0 | 0.00 | 0.00 | 0.00 | 49 | 1016.1 |
| 20260510170305 | 58 | 32 | 5.2 | 11.3 | 0.00 | 0.00 | 0.00 | 48 | 1016.4 |
| 20260510165306 | 58 | 322 | 6.1 | 13.9 | 0.00 | 0.00 | 0.00 | 47 | 1016.4 |
| 20260510163305 | 59 | 56 | 5.2 | 12.2 | 0.00 | 0.00 | 0.00 | 46 | 1016.6 |
| 20260510162306 | 60 | 26 | 2.6 | 7.0 | 0.00 | 0.00 | 0.00 | 43 | 1016.6 |
| 20260510161306 | 59 | 30 | 5.2 | 11.3 | 0.00 | 0.00 | 0.00 | 46 | 1016.7 |
| 20260510154306 | 58 | 64 | 3.5 | 9.6 | 0.00 | 0.00 | 0.00 | 50 | 1017.1 |
| 20260510153305 | 59 | 51 | 5.2 | 11.3 | 0.00 | 0.00 | 0.00 | 51 | 1017.1 |
| 20260510152307 | 59 | 356 | 5.2 | 16.5 | 0.00 | 0.00 | 0.00 | 50 | 1017.3 |
| 20260510151306 | 58 | 37 | 5.2 | 13.9 | 0.00 | 0.00 | 0.00 | 51 | 1017.5 |
| 20260510145306 | 58 | 344 | 6.1 | 13.9 | 0.00 | 0.00 | 0.00 | 50 | 1017.7 |
| 20260510144305 | 59 | 20 | 5.2 | 12.2 | 0.00 | 0.00 | 0.00 | 50 | 1017.9 |
| 20260510143305 | 59 | 44 | 4.3 | 12.2 | 0.00 | 0.00 | 0.00 | 50 | 1018.0 |
| 20260510142308 | 59 | 18 | 5.2 | 13.9 | 0.00 | 0.00 | 0.00 | 51 | 1018.2 |
| 20260510141308 | 59 | 30 | 6.1 | 13.0 | 0.00 | 0.00 | 0.00 | 52 | 1018.2 |
| 20260510140305 | 58 | 357 | 6.1 | 15.6 | 0.00 | 0.00 | 0.00 | 52 | 1018.3 |
| 20260510135306 | 58 | 60 | 5.2 | 10.4 | 0.00 | 0.00 | 0.00 | 54 | 1018.3 |
| 20260510134305 | 58 | 16 | 5.2 | 13.9 | 0.00 | 0.00 | 0.00 | 54 | 1018.3 |
| 20260510133306 | 58 | 33 | 5.2 | 12.2 | 0.00 | 0.00 | 0.00 | 55 | 1018.4 |
| 20260510132306 | 57 | 323 | 6.1 | 13.9 | 0.00 | 0.00 | 0.00 | 56 | 1018.4 |
| 20260510131305 | 57 | 46 | 5.2 | 15.6 | 0.00 | 0.00 | 0.00 | 56 | 1018.8 |
| 20260510125307 | 57 | 335 | 5.2 | 13.0 | 0.00 | 0.00 | 0.00 | 59 | 1018.8 |
| 20260510124306 | 56 | 15 | 6.1 | 13.0 | 0.00 | 0.00 | 0.00 | 59 | 1019.0 |
| 20260510122307 | 56 | 11 | 6.1 | 13.9 | 0.00 | 0.00 | 0.00 | 62 | 1019.2 |
| 20260510121305 | 55 | 21 | 6.1 | 13.9 | 0.00 | 0.00 | 0.00 | 62 | 1019.4 |
| 20260510120305 | 55 | 356 | 6.1 | 13.0 | 0.00 | 0.00 | 0.00 | 63 | 1019.5 |
| 20260510115306 | 54 | 115 | 6.1 | 13.9 | 0.00 | 0.00 | 0.00 | 64 | 1019.6 |
| 20260510114305 | 54 | 41 | 6.1 | 13.0 | 0.00 | 0.00 | 0.00 | 64 | 1019.8 |
| 20260510113306 | 54 | 41 | 6.1 | 13.9 | 0.00 | 0.00 | 0.00 | 65 | 1019.8 |
| 20260510112306 | 54 | 15 | 5.2 | 13.0 | 0.00 | 0.00 | 0.00 | 67 | 1019.9 |
| 20260510111306 | 54 | 44 | 6.1 | 14.8 | 0.00 | 0.00 | 0.00 | 67 | 1020.0 |
| 20260510110305 | 54 | 38 | 6.1 | 12.2 | 0.00 | 0.00 | 0.00 | 67 | 1020.1 |
| 20260510104305 | 53 | 35 | 4.3 | 11.3 | 0.00 | 0.00 | 0.00 | 69 | 1020.3 |
| 20260510103305 | 53 | 103 | 6.1 | 12.2 | 0.00 | 0.00 | 0.00 | 70 | 1020.3 |
| 20260510101305 | 53 | 27 | 6.1 | 12.2 | 0.00 | 0.00 | 0.00 | 71 | 1020.5 |
| 20260510095306 | 52 | 10 | 5.2 | 13.0 | 0.00 | 0.00 | 0.00 | 72 | 1020.6 |
| 20260510094303 | 51 | 11 | 6.1 | 14.8 | 0.00 | 0.00 | 0.00 | 74 | 1020.7 |
| 20260510093304 | 51 | 16 | 4.3 | 13.0 | 0.00 | 0.00 | 0.00 | 73 | 1020.8 |
| 20260510092306 | 51 | 49 | 4.3 | 9.6 | 0.00 | 0.00 | 0.00 | 74 | 1020.8 |
| 20260510091303 | 50 | 46 | 4.3 | 10.4 | 0.00 | 0.00 | 0.00 | 75 | 1020.9 |
| 20260510090304 | 50 | 25 | 5.2 | 11.3 | 0.00 | 0.00 | 0.00 | 75 | 1020.9 |
| 20260510085306 | 50 | 8 | 5.2 | 12.2 | 0.00 | 0.00 | 0.00 | 76 | 1021.0 |
| 20260510084303 | 50 | 49 | 5.2 | 12.2 | 0.00 | 0.00 | 0.00 | 76 | 1021.0 |
| 20260510083304 | 50 | 32 | 5.2 | 13.0 | 0.00 | 0.00 | 0.00 | 76 | 1021.0 |
| 20260510082306 | 49 | 67 | 5.2 | 13.0 | 0.00 | 0.00 | 0.00 | 77 | 1020.9 |
| 20260510081304 | 50 | 43 | 4.3 | 10.4 | 0.00 | 0.00 | 0.00 | 78 | 1021.0 |
| 20260510080304 | 49 | 41 | 6.1 | 14.8 | 0.00 | 0.00 | 0.00 | 78 | 1021.0 |
| 20260510075306 | 49 | 11 | 7.0 | 16.5 | 0.00 | 0.00 | 0.00 | 78 | 1021.0 |
| 20260510070303 | 49 | 102 | 5.2 | 12.2 | 0.00 | 0.00 | 0.00 | 81 | 1020.8 |
| 20260510064302 | 49 | 15 | 5.2 | 13.9 | 0.00 | 0.00 | 0.00 | 81 | 1020.8 |
| 20260510062301 | 49 | 327 | 4.3 | 10.4 | 0.00 | 0.00 | 0.00 | 81 | 1020.8 |
| 20260510060301 | 49 | 346 | 4.3 | 8.7 | 0.00 | 0.00 | 0.00 | 81 | 1020.7 |
| 20260510055300 | 49 | 30 | 3.5 | 9.6 | 0.00 | 0.00 | 0.00 | 81 | 1020.6 |
| 20260510052307 | 49 | 27 | 4.3 | 11.3 | 0.00 | 0.00 | 0.00 | 82 | 1020.6 |
| 20260510051259 | 49 | 39 | 5.2 | 9.6 | 0.00 | 0.00 | 0.00 | 82 | 1020.7 |
| 20260510050259 | 49 | 33 | 4.3 | 7.8 | 0.00 | 0.00 | 0.00 | 82 | 1020.9 |
| 20260510045259 | 49 | 41 | 4.3 | 10.4 | 0.00 | 0.00 | 0.00 | 82 | 1020.8 |
| 20260510044300 | 49 | 356 | 3.5 | 7.8 | 0.00 | 0.00 | 0.00 | 82 | 1020.8 |
| 20260510043331 | 50 | 58 | 4.3 | 10.4 | 0.00 | 0.00 | 0.00 | 82 | 1020.6 |
| 20260510042259 | 50 | 27 | 3.5 | 9.6 | 0.00 | 0.00 | 0.00 | 81 | 1020.7 |
| 20260510040305 | 50 | 35 | 5.2 | 10.4 | 0.00 | 0.00 | 0.00 | 81 | 1020.8 |
| 20260510035258 | 50 | 44 | 5.2 | 10.4 | 0.00 | 0.00 | 0.00 | 81 | 1020.9 |
| 20260510034259 | 50 | 11 | 5.2 | 14.8 | 0.00 | 0.00 | 0.00 | 81 | 1020.8 |
| 20260510033259 | 50 | 37 | 4.3 | 10.4 | 0.00 | 0.00 | 0.00 | 82 | 1020.8 |
| 20260510032259 | 50 | 49 | 3.5 | 7.8 | 0.00 | 0.00 | 0.00 | 82 | 1020.9 |
| 20260510031257 | 50 | 49 | 4.3 | 9.6 | 0.00 | 0.00 | 0.00 | 81 | 1020.9 |
| 20260510023256 | 50 | 55 | 2.6 | 7.0 | 0.00 | 0.00 | 0.00 | 82 | 1021.1 |
| 20260510022257 | 50 | 11 | 3.5 | 8.7 | 0.00 | 0.00 | 0.00 | 81 | 1021.2 |
| 20260510021256 | 50 | 28 | 3.5 | 7.8 | 0.00 | 0.00 | 0.00 | 81 | 1021.2 |
| 20260510015255 | 50 | 355 | 4.3 | 9.6 | 0.00 | 0.00 | 0.00 | 82 | 1021.3 |
| 20260510014254 | 50 | 357 | 2.6 | 7.0 | 0.00 | 0.00 | 0.00 | 83 | 1021.2 |
| 20260510013255 | 50 | 51 | 2.6 | 7.0 | 0.00 | 0.00 | 0.00 | 83 | 1021.3 |
| 20260510012255 | 50 | 29 | 1.7 | 7.8 | 0.00 | 0.00 | 0.00 | 83 | 1021.4 |
| 20260510011255 | 50 | 334 | 1.7 | 5.2 | 0.00 | 0.00 | 0.00 | 83 | 1021.3 |
| 20260510010254 | 50 | 50 | 1.7 | 4.3 | 0.00 | 0.00 | 0.00 | 83 | 1021.3 |
| 20260510005251 | 50 | 356 | 1.7 | 4.3 | 0.00 | 0.00 | 0.00 | 83 | 1021.2 |
| 20260510004250 | 50 | 32 | 2.6 | 7.8 | 0.00 | 0.00 | 0.00 | 82 | 1021.1 |
| 20260510002250 | 50 | 56 | 3.5 | 9.6 | 0.00 | 0.00 | 0.00 | 82 | 1020.8 |
| 20260510001250 | 50 | 80 | 3.5 | 7.8 | 0.00 | 0.00 | 0.00 | 82 | 1020.9 |
| 20260510000250 | 50 | 359 | 3.5 | 7.8 | 0.00 | 0.00 | 0.00 | 82 | 1020.9 |
| 20260509234244 | 50 | 11 | 3.5 | 9.6 | 0.00 | 0.00 | 0.00 | 81 | 1020.9 |
| 20260509233244 | 50 | 57 | 3.5 | 9.6 | 0.00 | 0.00 | 0.00 | 81 | 1021.0 |
| 20260509232244 | 50 | 43 | 4.3 | 10.4 | 0.00 | 0.00 | 0.00 | 81 | 1021.0 |
| 20260509222243 | 52 | 30 | 5.2 | 11.3 | 0.00 | 0.00 | 0.00 | 79 | 1020.7 |
| 20260509221243 | 53 | 27 | 4.3 | 12.2 | 0.00 | 0.00 | 0.00 | 79 | 1020.7 |
| 20260509220237 | 53 | 281 | 3.5 | 10.4 | 0.00 | 0.00 | 0.00 | 80 | 1020.6 |
| 20260509215239 | 53 | 51 | 3.5 | 9.6 | 0.00 | 0.00 | 0.00 | 80 | 1020.5 |